Terminal Aerodrome Forecast
Issued by NWS Huntsville, AL

Home | Current Version | Previous Version | Text Only | Print | Product List | Glossary On
Versions: 1 2 3 4 5 6 7 8 9 10 11 12 13 14 15 16 17 18 19 20 21 22 23 24 25 26 27 28 29 30 31 32 33 34 35 36 37 38 39
000
FTUS44 KHUN 271902 AAA
TAFHSV
TAF AMD
KHSV 271902Z 2719/2818 22005KT P6SM SCT025 BKN030
      TEMPO 2719/2720 VRB10G20KT P6SM -TSRA BKN030CB
     FM272000 23010KT P6SM BKN040
      TEMPO 2721/2801 5SM -TSRA BR BKN025CB
     FM280100 VRB03KT P6SM -SHRA BKN050
     FM280600 VRB03KT P6SM BKN250
     FM281000 14004KT 5SM BR BKN025 OVC040=

USA.gov is the U.S. government's official web portal to all federal, state and local government web resources and services.